createdAt,value
2018-03-15T00:00:47.118Z,71.85
2018-03-15T00:03:20.982Z,71.25
2018-03-15T00:05:49.325Z,71.41
2018-03-15T00:08:17.650Z,71.91
2018-03-15T00:10:45.997Z,72.83
2018-03-15T00:13:14.355Z,73.15
2018-03-15T00:15:42.680Z,72.99
2018-03-15T00:18:11.022Z,73.42
2018-03-15T00:20:39.873Z,74.00
2018-03-15T00:23:08.183Z,74.48
2018-03-15T00:25:36.529Z,73.22
2018-03-15T00:28:04.854Z,74.21
2018-03-15T00:30:33.945Z,74.89
2018-03-15T00:33:02.268Z,74.17
2018-03-15T00:35:30.610Z,74.29
2018-03-15T00:37:58.905Z,74.24
2018-03-15T00:40:27.254Z,73.81
2018-03-15T00:42:55.867Z,73.47
2018-03-15T00:45:24.192Z,73.04
2018-03-15T00:47:53.316Z,72.02
2018-03-15T00:50:21.651Z,72.45
2018-03-15T00:52:49.964Z,73.27
2018-03-15T00:55:18.292Z,74.00
2018-03-15T00:57:46.615Z,72.81
2018-03-15T01:00:15.706Z,72.78
2018-03-15T01:02:44.805Z,73.94
2018-03-15T01:05:14.423Z,73.92
2018-03-15T01:07:42.741Z,73.66
2018-03-15T01:10:11.063Z,73.55
2018-03-15T01:12:40.191Z,72.83
2018-03-15T01:15:08.559Z,72.17
2018-03-15T01:17:36.876Z,73.39
2018-03-15T01:20:05.211Z,72.80
2018-03-15T01:22:33.559Z,73.19
2018-03-15T01:25:01.899Z,73.67
2018-03-15T01:27:30.314Z,73.70
2018-03-15T01:29:58.628Z,73.87
2018-03-15T01:32:26.966Z,73.75
2018-03-15T01:34:55.320Z,75.07
2018-03-15T01:37:23.623Z,75.73
2018-03-15T01:39:51.957Z,74.82
2018-03-15T01:42:20.325Z,75.60
2018-03-15T01:44:48.660Z,76.29
2018-03-15T01:47:16.977Z,76.35
2018-03-15T01:49:45.434Z,76.85
2018-03-15T01:52:13.757Z,76.60
2018-03-15T01:54:42.139Z,76.16
2018-03-15T01:57:10.480Z,76.09
2018-03-15T01:59:38.788Z,77.07
2018-03-15T02:02:07.099Z,76.53
2018-03-15T02:04:35.450Z,76.39
2018-03-15T02:07:03.751Z,75.29
2018-03-15T02:09:32.049Z,75.50
2018-03-15T02:12:00.839Z,75.48
2018-03-15T02:14:29.108Z,75.12
2018-03-15T02:16:57.413Z,75.60
2018-03-15T02:19:26.528Z,75.88
2018-03-15T02:21:54.839Z,76.61
2018-03-15T02:24:23.170Z,76.54
2018-03-15T02:26:51.555Z,76.71
2018-03-15T02:29:19.870Z,77.13
2018-03-15T02:31:48.187Z,76.60
2018-03-15T02:34:16.985Z,77.06
2018-03-15T02:36:45.308Z,75.95
2018-03-15T02:39:13.666Z,76.10
2018-03-15T02:41:42.002Z,75.92
2018-03-15T02:44:10.317Z,76.39
2018-03-15T02:46:38.629Z,75.84
2018-03-15T02:49:07.007Z,75.07
2018-03-15T02:51:35.319Z,74.34
2018-03-15T02:54:03.621Z,74.89
2018-03-15T02:56:32.801Z,75.37
2018-03-15T02:59:01.087Z,75.91
2018-03-15T03:01:29.403Z,74.62
2018-03-15T03:03:57.706Z,75.80
2018-03-15T03:06:26.041Z,75.53
2018-03-15T03:08:54.329Z,75.89
2018-03-15T03:11:22.674Z,75.24
2018-03-15T03:13:51.011Z,74.98
2018-03-15T03:16:19.329Z,75.23
2018-03-15T03:18:48.941Z,74.91
2018-03-15T03:21:17.249Z,75.26
2018-03-15T03:23:45.540Z,75.11
2018-03-15T03:26:13.903Z,75.08
2018-03-15T03:28:42.211Z,74.48
2018-03-15T03:31:10.502Z,73.88
2018-03-15T03:33:38.882Z,73.80
2018-03-15T03:36:08.256Z,74.30
2018-03-15T03:38:36.589Z,74.79
2018-03-15T03:41:06.073Z,73.96
2018-03-15T03:43:34.383Z,73.56
2018-03-15T03:46:02.686Z,73.41
2018-03-15T03:48:31.018Z,73.50
2018-03-15T03:50:59.326Z,73.37
2018-03-15T03:53:27.628Z,73.60
2018-03-15T03:55:55.978Z,72.82
2018-03-15T03:58:24.279Z,72.61
2018-03-15T04:00:52.580Z,73.22
2018-03-15T04:03:21.217Z,74.58
2018-03-15T04:05:50.273Z,75.42
2018-03-15T04:08:18.585Z,75.42
2018-03-15T04:10:46.905Z,75.62
2018-03-15T04:13:15.200Z,74.46
2018-03-15T04:15:43.558Z,74.04
2018-03-15T04:18:11.857Z,73.71
2018-03-15T04:20:40.175Z,72.91
2018-03-15T04:23:08.504Z,72.58
2018-03-15T04:25:37.672Z,72.29
2018-03-15T04:28:05.987Z,72.21
2018-03-15T04:30:34.296Z,72.70
2018-03-15T04:33:02.645Z,71.73
2018-03-15T04:35:30.933Z,71.85
2018-03-15T04:37:59.267Z,71.95
2018-03-15T04:40:27.620Z,73.10
2018-03-15T04:42:55.990Z,71.63
2018-03-15T04:45:25.050Z,72.10
2018-03-15T04:47:53.455Z,71.94
2018-03-15T04:50:21.758Z,71.57
2018-03-15T04:52:50.836Z,70.93
2018-03-15T04:55:19.931Z,71.71
2018-03-15T04:57:49.003Z,71.68
2018-03-15T05:00:17.337Z,70.84
2018-03-15T05:02:45.676Z,71.63
2018-03-15T05:05:13.996Z,71.62
2018-03-15T05:07:42.331Z,70.92
2018-03-15T05:10:11.026Z,71.04
2018-03-15T05:12:40.123Z,71.40
2018-03-15T05:15:08.435Z,71.87
2018-03-15T05:17:36.768Z,71.43
2018-03-15T05:20:05.063Z,71.87
2018-03-15T05:22:34.150Z,71.50
2018-03-15T05:25:02.483Z,71.42
2018-03-15T05:27:30.832Z,70.51
2018-03-15T05:29:59.168Z,70.71
2018-03-15T05:32:27.560Z,70.91
2018-03-15T05:34:55.865Z,70.02
2018-03-15T05:37:24.201Z,69.98
2018-03-15T05:39:52.547Z,70.36
2018-03-15T05:42:20.860Z,70.56
2018-03-15T05:44:49.246Z,69.86
2018-03-15T05:47:17.624Z,70.88
2018-03-15T05:49:45.929Z,70.47
2018-03-15T05:52:14.239Z,70.93
2018-03-15T05:54:43.074Z,70.85
2018-03-15T05:57:11.387Z,70.64
2018-03-15T05:59:39.706Z,70.93
2018-03-15T06:02:08.069Z,70.91
2018-03-15T06:04:36.390Z,71.28
2018-03-15T06:07:04.716Z,71.02
2018-03-15T06:09:33.037Z,70.46
2018-03-15T06:12:01.352Z,69.79
2018-03-15T06:14:29.673Z,69.57
2018-03-15T06:16:58.374Z,69.30
2018-03-15T06:19:26.668Z,68.39
2018-03-15T06:21:54.974Z,68.04
2018-03-15T06:24:23.301Z,68.38
2018-03-15T06:26:52.377Z,68.48
2018-03-15T06:29:20.695Z,69.16
2018-03-15T06:31:49.069Z,69.49
2018-03-15T06:34:17.421Z,68.71
2018-03-15T06:36:45.756Z,69.72
2018-03-15T06:39:14.300Z,70.06
2018-03-15T06:41:42.620Z,70.21
2018-03-15T06:44:10.967Z,69.48
2018-03-15T06:46:39.419Z,69.79
2018-03-15T06:49:08.552Z,69.87
2018-03-15T06:51:37.659Z,69.11
2018-03-15T06:54:06.798Z,69.18
2018-03-15T06:56:35.090Z,68.87
2018-03-15T06:59:03.409Z,69.56
2018-03-15T07:01:32.616Z,70.30
2018-03-15T07:04:01.703Z,70.12
2018-03-15T07:06:30.867Z,70.42
2018-03-15T07:08:59.232Z,69.81
2018-03-15T07:11:27.598Z,69.45
2018-03-15T07:13:55.917Z,68.49
2018-03-15T07:16:24.261Z,67.54
2018-03-15T07:18:52.573Z,65.91
2018-03-15T07:21:20.907Z,64.97
2018-03-15T07:23:49.634Z,65.05
2018-03-15T07:26:17.956Z,61.04
2018-03-15T07:28:46.273Z,53.93
2018-03-15T07:31:15.105Z,51.42
2018-03-15T07:33:43.437Z,50.95
2018-03-15T07:36:11.754Z,51.69
2018-03-15T07:38:40.102Z,52.29
2018-03-15T07:41:08.412Z,52.93
2018-03-15T07:43:36.715Z,49.98
2018-03-15T07:46:05.365Z,51.27
2018-03-15T07:48:33.672Z,50.72
2018-03-15T07:51:02.783Z,50.15
2018-03-15T07:53:31.157Z,51.21
2018-03-15T07:55:59.477Z,48.72
2018-03-15T07:58:27.820Z,48.30
2018-03-15T08:00:56.183Z,52.39
2018-03-15T08:03:25.282Z,55.29
2018-03-15T08:05:54.385Z,58.33
2018-03-15T08:08:22.973Z,61.40
2018-03-15T08:10:51.301Z,62.06
2018-03-15T08:13:19.618Z,63.61
2018-03-15T08:15:47.964Z,65.10
2018-03-15T08:18:16.337Z,66.10
2018-03-15T08:20:44.646Z,65.77
2018-03-15T08:23:13.750Z,65.70
2018-03-15T08:25:42.085Z,66.54
2018-03-15T08:28:10.401Z,66.67
2018-03-15T08:30:39.145Z,66.88
2018-03-15T08:33:08.274Z,67.60
2018-03-15T08:35:37.389Z,67.40
2018-03-15T08:38:05.747Z,65.92
2018-03-15T08:40:34.136Z,66.30
2018-03-15T08:43:03.214Z,66.29
2018-03-15T08:45:31.534Z,66.99
2018-03-15T08:47:59.985Z,66.16
2018-03-15T08:50:29.094Z,65.14
2018-03-15T08:52:58.478Z,64.69
2018-03-15T08:55:26.812Z,65.86
2018-03-15T08:57:55.163Z,65.53
2018-03-15T09:00:23.498Z,64.42
2018-03-15T09:02:51.824Z,64.31
2018-03-15T09:05:20.944Z,63.85
2018-03-15T09:07:49.357Z,64.13
2018-03-15T09:10:17.720Z,64.49
2018-03-15T09:12:46.045Z,63.56
2018-03-15T09:15:15.448Z,63.62
2018-03-15T09:17:43.789Z,62.63
2018-03-15T09:20:12.097Z,62.90
2018-03-15T09:22:41.230Z,63.45
2018-03-15T09:25:09.579Z,63.50
2018-03-15T09:27:38.686Z,62.88
2018-03-15T09:30:07.052Z,62.82
2018-03-15T09:32:35.437Z,64.06
2018-03-15T09:35:03.771Z,64.46
2018-03-15T09:37:32.430Z,63.95
2018-03-15T09:40:01.581Z,62.92
2018-03-15T09:42:30.826Z,64.81
2018-03-15T09:44:59.231Z,65.80
2018-03-15T09:47:27.588Z,66.63
2018-03-15T09:49:55.928Z,67.31
2018-03-15T09:52:24.297Z,67.53
2018-03-15T09:54:53.396Z,67.85
2018-03-15T09:57:21.741Z,67.11
2018-03-15T09:59:51.063Z,67.22
2018-03-15T10:02:20.149Z,67.30
2018-03-15T10:04:48.486Z,67.43
2018-03-15T10:07:16.858Z,66.73
2018-03-15T10:09:45.268Z,66.61
2018-03-15T10:12:13.589Z,65.61
2018-03-15T10:14:41.965Z,64.83
2018-03-15T10:17:10.304Z,65.44
2018-03-15T10:19:38.670Z,64.80
2018-03-15T10:22:07.202Z,64.97
2018-03-15T10:24:35.544Z,66.37
2018-03-15T10:27:03.887Z,66.14
2018-03-15T10:29:32.230Z,67.19
2018-03-15T10:32:01.352Z,67.38
2018-03-15T10:34:29.700Z,66.78
2018-03-15T10:36:58.070Z,67.62
2018-03-15T10:39:26.524Z,67.46
2018-03-15T10:41:54.847Z,67.09
2018-03-15T10:44:24.222Z,67.32
2018-03-15T10:46:52.543Z,68.06
2018-03-15T10:49:20.901Z,68.20
2018-03-15T10:51:50.079Z,68.41
2018-03-15T10:54:18.403Z,67.79
2018-03-15T10:56:46.744Z,67.89
2018-03-15T10:59:15.133Z,68.97
2018-03-15T11:01:48.890Z,69.42
2018-03-15T11:04:17.689Z,69.84
2018-03-15T11:06:51.453Z,69.90
2018-03-15T11:09:36.496Z,69.33
2018-03-15T11:12:04.846Z,69.79
2018-03-15T11:14:33.189Z,69.77
2018-03-15T11:17:01.562Z,69.92
2018-03-15T11:19:29.891Z,68.98
2018-03-15T11:21:58.222Z,69.05
2018-03-15T11:24:26.992Z,69.58
2018-03-15T11:26:55.348Z,68.88
2018-03-15T11:29:23.686Z,67.45
2018-03-15T11:31:52.071Z,68.34
2018-03-15T11:34:20.400Z,68.18
2018-03-15T11:36:49.536Z,67.23
2018-03-15T11:39:17.920Z,67.81
2018-03-15T11:41:46.258Z,69.25
2018-03-15T11:44:15.392Z,68.99
2018-03-15T11:46:44.170Z,68.52
2018-03-15T11:49:12.548Z,67.37
2018-03-15T11:51:40.887Z,66.79
2018-03-15T11:54:09.316Z,67.06
2018-03-15T11:56:37.657Z,67.43
2018-03-15T11:59:06.742Z,67.32
2018-03-15T12:01:35.161Z,67.75
2018-03-15T12:04:04.253Z,68.02
2018-03-15T12:06:32.680Z,68.17
2018-03-15T12:09:01.158Z,68.09
2018-03-15T12:11:29.501Z,67.88
2018-03-15T12:13:57.875Z,67.22
2018-03-15T12:16:26.248Z,67.25
2018-03-15T12:18:55.349Z,66.62
2018-03-15T12:21:24.587Z,66.60
2018-03-15T12:23:53.000Z,66.05
2018-03-15T12:26:21.321Z,66.24
2018-03-15T12:28:49.619Z,66.03
2018-03-15T12:31:19.042Z,65.89
2018-03-15T12:33:47.512Z,64.73
2018-03-15T12:36:15.840Z,64.73
2018-03-15T12:38:44.252Z,64.95
2018-03-15T12:41:12.611Z,64.44
2018-03-15T12:43:41.691Z,65.21
2018-03-15T12:46:10.075Z,65.19
2018-03-15T12:48:39.137Z,64.74
2018-03-15T12:51:07.470Z,64.13
2018-03-15T12:53:35.962Z,65.22
2018-03-15T12:56:04.300Z,66.25
2018-03-15T12:58:32.605Z,65.64
2018-03-15T13:01:01.733Z,65.76
2018-03-15T13:03:30.086Z,64.39
2018-03-15T13:05:58.393Z,64.27
2018-03-15T13:08:26.765Z,64.17
2018-03-15T13:10:55.088Z,64.92
2018-03-15T13:13:23.426Z,64.97
2018-03-15T13:15:51.968Z,64.66
2018-03-15T13:18:20.352Z,65.75
2018-03-15T13:20:49.430Z,65.46
2018-03-15T13:23:17.803Z,65.14
2018-03-15T13:25:46.138Z,65.21
2018-03-15T13:28:14.465Z,65.32
2018-03-15T13:30:42.810Z,64.83
2018-03-15T13:33:11.124Z,63.67
2018-03-15T13:35:39.494Z,63.25
2018-03-15T13:38:07.976Z,64.01
2018-03-15T13:40:36.340Z,63.68
2018-03-15T13:43:04.670Z,63.65
2018-03-15T13:45:33.009Z,63.88
2018-03-15T13:48:01.381Z,62.95
2018-03-15T13:50:29.716Z,63.53
2018-03-15T13:52:58.084Z,63.77
2018-03-15T13:55:26.543Z,64.28
2018-03-15T13:57:55.652Z,63.11
2018-03-15T14:00:25.688Z,62.85
2018-03-15T14:02:54.036Z,63.39
2018-03-15T14:05:23.124Z,63.09
2018-03-15T14:07:51.455Z,62.88
2018-03-15T14:10:19.758Z,62.05
2018-03-15T14:12:48.079Z,62.47
2018-03-15T14:15:16.426Z,62.70
2018-03-15T14:17:44.775Z,62.62
2018-03-15T14:20:13.086Z,62.54
2018-03-15T14:22:41.601Z,63.60
2018-03-15T14:25:09.964Z,63.12
2018-03-15T14:27:39.045Z,63.18
2018-03-15T14:30:07.394Z,62.98
2018-03-15T14:32:35.726Z,63.00
2018-03-15T14:35:04.064Z,63.41
2018-03-15T14:37:33.186Z,62.71
2018-03-15T14:40:01.516Z,62.40
2018-03-15T14:42:29.875Z,62.17
2018-03-15T14:44:58.458Z,62.67
2018-03-15T14:47:26.805Z,62.59
2018-03-15T14:49:55.921Z,62.36
2018-03-15T14:52:24.261Z,61.97
2018-03-15T14:54:52.604Z,62.09
2018-03-15T14:57:20.948Z,62.84
2018-03-15T14:59:50.099Z,62.97
2018-03-15T15:02:18.469Z,63.02
2018-03-15T15:04:46.824Z,63.06
2018-03-15T15:07:15.515Z,63.09
2018-03-15T15:09:43.911Z,63.36
2018-03-15T15:12:12.234Z,63.64
2018-03-15T15:14:40.636Z,63.25
2018-03-15T15:17:09.707Z,63.85
2018-03-15T15:19:38.064Z,63.24
2018-03-15T15:22:06.408Z,63.71
2018-03-15T15:24:34.719Z,63.63
2018-03-15T15:27:03.064Z,63.61
2018-03-15T15:29:31.485Z,64.28
2018-03-15T15:31:59.802Z,65.50
2018-03-15T15:34:28.902Z,65.89
2018-03-15T15:36:58.019Z,66.46
2018-03-15T15:39:26.353Z,65.95
2018-03-15T15:41:55.439Z,66.39
2018-03-15T15:44:24.572Z,66.34
2018-03-15T15:46:52.945Z,65.92
2018-03-15T15:49:22.069Z,65.40
2018-03-15T15:51:50.493Z,65.75
2018-03-15T15:54:19.757Z,65.31
2018-03-15T15:56:48.090Z,65.09
2018-03-15T15:59:16.477Z,65.85
2018-03-15T16:01:45.613Z,65.12
2018-03-15T16:04:14.007Z,65.09
2018-03-15T16:06:43.086Z,65.85
2018-03-15T16:09:11.418Z,66.13
2018-03-15T16:11:39.772Z,66.15
2018-03-15T16:14:08.698Z,66.40
2018-03-15T16:16:37.868Z,65.78
2018-03-15T16:19:06.205Z,65.82
2018-03-15T16:21:34.650Z,66.10
2018-03-15T16:24:02.953Z,66.61
2018-03-15T16:26:31.349Z,66.94
2018-03-15T16:28:59.755Z,66.50
2018-03-15T16:31:28.099Z,66.58
2018-03-15T16:33:56.424Z,65.82
2018-03-15T16:36:24.880Z,66.61
2018-03-15T16:38:53.496Z,65.95
2018-03-15T16:41:21.844Z,65.81
2018-03-15T16:43:50.215Z,65.93
2018-03-15T16:46:18.550Z,66.48
2018-03-15T16:48:47.624Z,66.32
2018-03-15T16:51:15.969Z,65.71
2018-03-15T16:53:44.280Z,65.78
2018-03-15T16:56:12.612Z,65.51
2018-03-15T16:58:41.280Z,66.15
2018-03-15T17:01:10.363Z,65.56
2018-03-15T17:03:38.686Z,65.55
2018-03-15T17:06:07.061Z,66.03
2018-03-15T17:08:35.383Z,64.78
2018-03-15T17:11:03.770Z,64.89
2018-03-15T17:13:32.980Z,64.43
2018-03-15T17:16:02.082Z,64.33
2018-03-15T17:18:30.515Z,65.08
2018-03-15T17:20:59.005Z,64.90
2018-03-15T17:23:27.345Z,64.67
2018-03-15T17:25:55.675Z,63.96
2018-03-15T17:28:24.798Z,64.19
2018-03-15T17:30:53.137Z,65.04
2018-03-15T17:33:21.479Z,65.01
2018-03-15T17:35:49.846Z,64.34
2018-03-15T17:38:18.187Z,64.37
2018-03-15T17:40:46.701Z,64.95
2018-03-15T17:43:15.379Z,65.47
2018-03-15T17:45:43.732Z,65.46
2018-03-15T17:48:12.069Z,65.40
2018-03-15T17:50:40.418Z,65.31
2018-03-15T17:53:09.548Z,65.79
2018-03-15T17:55:37.866Z,65.98
2018-03-15T17:58:06.432Z,65.80
2018-03-15T18:00:34.746Z,65.86
2018-03-15T18:03:03.834Z,66.19
2018-03-15T18:05:32.281Z,65.27
2018-03-15T18:08:00.618Z,65.55
2018-03-15T18:10:28.949Z,65.20
2018-03-15T18:12:57.326Z,65.33
2018-03-15T18:15:25.744Z,64.92
2018-03-15T18:17:54.861Z,65.15
2018-03-15T18:20:23.227Z,65.17
2018-03-15T18:22:51.552Z,65.26
2018-03-15T18:25:19.892Z,65.19
2018-03-15T18:27:48.304Z,65.46
2018-03-15T18:30:16.638Z,65.24
2018-03-15T18:32:45.714Z,65.61
2018-03-15T18:35:14.062Z,65.41
2018-03-15T18:37:42.370Z,65.03
2018-03-15T18:40:10.714Z,64.41
2018-03-15T18:42:39.185Z,64.74
2018-03-15T18:45:07.548Z,65.09
2018-03-15T18:47:35.890Z,65.00
2018-03-15T18:50:04.447Z,65.51
2018-03-15T18:52:32.802Z,65.05
2018-03-15T18:55:01.124Z,65.25
2018-03-15T18:57:29.481Z,65.47
2018-03-15T18:59:57.836Z,66.05
2018-03-15T19:02:26.182Z,66.03
2018-03-15T19:04:55.332Z,65.46
2018-03-15T19:07:23.697Z,65.26
2018-03-15T19:09:52.035Z,65.96
2018-03-15T19:12:21.500Z,65.89
2018-03-15T19:14:49.861Z,66.62
2018-03-15T19:17:18.294Z,66.08
2018-03-15T19:19:46.694Z,65.46
2018-03-15T19:22:15.098Z,65.60
2018-03-15T19:24:43.554Z,65.89
2018-03-15T19:27:11.917Z,66.09
2018-03-15T19:29:41.114Z,65.88
2018-03-15T19:32:10.261Z,65.88
2018-03-15T19:34:39.530Z,66.07
2018-03-15T19:37:07.861Z,65.62
2018-03-15T19:39:36.245Z,65.12
2018-03-15T19:42:04.595Z,65.18
2018-03-15T19:44:33.896Z,65.82
2018-03-15T19:47:02.295Z,65.61
2018-03-15T19:49:30.707Z,65.65
2018-03-15T19:51:59.119Z,65.69
2018-03-15T19:54:27.485Z,66.42
2018-03-15T19:56:56.668Z,66.27
2018-03-15T19:59:25.017Z,65.70
2018-03-15T20:01:53.384Z,64.81
2018-03-15T20:04:21.755Z,64.61
2018-03-15T20:06:51.365Z,64.70
2018-03-15T20:09:20.405Z,64.71
2018-03-15T20:11:49.565Z,65.32
2018-03-15T20:14:17.894Z,65.40
2018-03-15T20:16:46.220Z,65.28
2018-03-15T20:19:19.628Z,65.60
2018-03-15T20:21:47.930Z,65.36
2018-03-15T20:24:21.846Z,65.15
2018-03-15T20:26:50.196Z,65.36
2018-03-15T20:29:18.501Z,64.93
2018-03-15T20:31:47.620Z,65.38
2018-03-15T20:34:16.030Z,65.13
2018-03-15T20:36:45.187Z,64.29
2018-03-15T20:39:20.128Z,65.61
2018-03-15T20:41:49.200Z,65.76
2018-03-15T20:44:18.006Z,65.52
2018-03-15T20:46:52.559Z,65.46
2018-03-15T20:49:20.886Z,65.12
2018-03-15T20:51:49.240Z,64.76
2018-03-15T20:54:17.632Z,64.90
2018-03-15T20:56:45.970Z,64.76
2018-03-15T20:59:14.357Z,64.57
2018-03-15T21:01:42.861Z,64.92
2018-03-15T21:04:11.252Z,64.82
2018-03-15T21:06:40.511Z,65.37
2018-03-15T21:09:08.891Z,65.92
2018-03-15T21:11:37.240Z,65.36
2018-03-15T21:14:06.334Z,64.88
2018-03-15T21:16:35.492Z,65.51
2018-03-15T21:19:03.831Z,65.05
2018-03-15T21:21:32.190Z,64.85
2018-03-15T21:24:01.382Z,64.98
2018-03-15T21:26:30.505Z,64.74
2018-03-15T21:28:58.852Z,64.56
2018-03-15T21:31:27.218Z,65.18
2018-03-15T21:33:55.546Z,65.83
2018-03-15T21:36:23.876Z,65.45
2018-03-15T21:38:52.226Z,65.00
2018-03-15T21:41:20.581Z,64.84
2018-03-15T21:43:48.967Z,64.92
2018-03-15T21:46:17.696Z,64.44
2018-03-15T21:48:46.051Z,65.26
2018-03-15T21:51:14.387Z,65.13
2018-03-15T21:53:43.551Z,65.24
2018-03-15T21:56:11.869Z,64.72
2018-03-15T21:58:40.263Z,64.61
2018-03-15T22:01:08.789Z,65.02
2018-03-15T22:03:37.151Z,64.99
2018-03-15T22:06:06.291Z,65.55
2018-03-15T22:08:34.972Z,65.20
2018-03-15T22:11:03.362Z,65.53
2018-03-15T22:13:31.684Z,66.09
2018-03-15T22:16:00.057Z,66.07
2018-03-15T22:18:28.403Z,65.80
2018-03-15T22:20:57.577Z,65.51
2018-03-15T22:23:25.983Z,65.89
2018-03-15T22:25:54.304Z,65.58
2018-03-15T22:28:22.621Z,66.52
2018-03-15T22:30:51.050Z,65.63
2018-03-15T22:33:19.415Z,66.17
2018-03-15T22:35:47.806Z,66.71
2018-03-15T22:38:16.217Z,66.58
2018-03-15T22:40:44.573Z,66.28
2018-03-15T22:43:12.927Z,66.52
2018-03-15T22:45:41.303Z,66.56
2018-03-15T22:48:09.691Z,67.30
2018-03-15T22:50:38.002Z,67.16
2018-03-15T22:53:06.398Z,67.33
2018-03-15T22:55:34.718Z,67.18
2018-03-15T22:58:03.048Z,67.44
2018-03-15T23:00:31.401Z,68.00
2018-03-15T23:02:59.752Z,68.04
2018-03-15T23:05:28.848Z,67.92
2018-03-15T23:07:57.260Z,67.95
2018-03-15T23:10:25.635Z,67.55
2018-03-15T23:12:54.020Z,66.47
2018-03-15T23:15:22.494Z,67.59
2018-03-15T23:17:50.798Z,67.38
2018-03-15T23:20:19.890Z,66.92
2018-03-15T23:22:49.303Z,67.20
2018-03-15T23:25:17.657Z,66.59
2018-03-15T23:27:46.010Z,66.44
2018-03-15T23:30:14.377Z,66.99
2018-03-15T23:32:42.713Z,66.89
2018-03-15T23:35:11.058Z,67.63
2018-03-15T23:37:39.619Z,67.40
2018-03-15T23:40:07.940Z,67.99
2018-03-15T23:42:36.295Z,67.80
2018-03-15T23:45:04.640Z,68.11
2018-03-15T23:47:32.984Z,68.09
2018-03-15T23:50:01.340Z,67.78
2018-03-15T23:52:29.775Z,67.74
2018-03-15T23:54:59.658Z,68.11
2018-03-15T23:57:28.005Z,68.13
2018-03-15T23:59:56.680Z,68.19
